Time;durP1;ratioP1;P1;durP2;ratioP2;P2;SDS_P1;SDS_P2;PMS_P1;PMS_P2;Temp;Humidity;BMP_temperature;BMP_pressure;BME280_temperature;BME280_humidity;BME280_pressure;Samples;Min_cycle;Max_cycle;Signal;HPM_P1;HPM_P2
2024/02/10 00:02:03;;;;;;;0.10;0.10;;;;;;;8.95;79.79;97028.63;7370932;19;20090;-63
2024/02/10 00:04:30;;;;;;;0.10;0.10;;;;;;;8.75;79.27;97008.47;7370665;19;20013;-63
2024/02/10 00:06:56;;;;;;;0.10;0.10;;;;;;;8.81;79.36;97034.03;7378039;19;20026;-63
2024/02/10 00:09:22;;;;;;;0.10;0.10;;;;;;;8.76;79.27;97033.53;7374925;19;20021;-63
2024/02/10 00:11:47;;;;;;;0.10;0.10;;;;;;;8.68;79.15;97043.69;7372278;19;20018;-63
2024/02/10 00:14:14;;;;;;;0.10;0.10;;;;;;;8.48;79.55;97022.59;7368662;19;20009;-63
2024/02/10 00:16:39;;;;;;;0.10;0.10;;;;;;;8.53;79.15;97046.47;7368394;19;20018;-64
2024/02/10 00:19:09;;;;;;;0.10;0.10;;;;;;;8.19;79.42;97009.06;7369180;19;20017;-63
2024/02/10 00:21:36;;;;;;;0.10;0.10;;;;;;;8.30;79.30;97040.28;7370783;19;20086;-63
2024/02/10 00:24:02;;;;;;;0.00;0.00;;;;;;;8.17;79.33;97026.53;7370825;19;20753;-63
2024/02/10 00:26:27;;;;;;;0.10;0.10;;;;;;;8.19;79.41;97047.22;7366901;19;20017;-63
2024/02/10 00:28:56;;;;;;;0.10;0.10;;;;;;;7.99;79.66;97020.88;7367820;19;20011;-63
2024/02/10 00:31:23;;;;;;;0.10;0.10;;;;;;;7.93;79.43;97021.31;7366051;19;20018;-63
2024/02/10 00:33:50;;;;;;;0.10;0.10;;;;;;;7.99;79.52;97046.84;7367783;19;20027;-63
2024/02/10 00:36:16;;;;;;;0.10;0.10;;;;;;;7.97;79.34;97053.13;7365456;19;20391;-63
2024/02/10 00:38:42;;;;;;;0.10;0.10;;;;;;;7.78;79.36;97032.78;7367057;19;20009;-63
2024/02/10 00:41:12;;;;;;;0.03;0.03;;;;;;;7.84;79.71;97055.72;7368967;19;20021;-63
2024/02/10 00:43:42;;;;;;;0.10;0.10;;;;;;;7.77;79.45;97057.09;7368329;19;20430;-64
2024/02/10 00:46:10;;;;;;;0.10;0.10;;;;;;;7.67;79.55;97050.88;7374655;19;20078;-63
2024/02/10 00:48:39;;;;;;;0.10;0.10;;;;;;;7.35;79.56;97014.16;7375448;19;20006;-63
2024/02/10 00:51:05;;;;;;;0.10;0.10;;;;;;;7.28;79.55;97018.94;7374344;19;20018;-63
2024/02/10 00:53:39;;;;;;;0.10;0.10;;;;;;;7.53;79.92;97073.44;7374025;19;20017;-63
2024/02/10 00:56:09;;;;;;;0.10;0.10;;;;;;;7.46;79.88;97069.59;7367529;19;20086;-63
2024/02/10 00:58:35;;;;;;;0.10;0.10;;;;;;;7.34;80.06;97069.59;7369804;19;20045;-63
2024/02/10 01:01:00;;;;;;;0.05;0.05;;;;;;;7.19;80.12;97042.91;7367495;19;20010;-63
2024/02/10 01:03:26;;;;;;;0.00;0.00;;;;;;;7.32;79.94;97072.28;7368318;19;20502;-63
2024/02/10 01:05:51;;;;;;;0.03;0.03;;;;;;;7.10;79.89;97048.75;7366968;19;19998;-63
2024/02/10 01:08:17;;;;;;;0.10;0.10;;;;;;;7.16;79.92;97071.69;7368024;19;20003;-63
2024/02/10 01:10:44;;;;;;;0.00;0.00;;;;;;;7.07;80.02;97067.09;7367316;19;20101;-63
2024/02/10 01:13:10;;;;;;;0.10;0.10;;;;;;;7.09;79.93;97083.38;7368829;19;20818;-63
2024/02/10 01:15:35;;;;;;;0.00;0.00;;;;;;;7.05;79.98;97084.53;7369345;19;19999;-63
2024/02/10 01:18:04;;;;;;;0.03;0.03;;;;;;;6.95;79.93;97089.50;7371419;19;20070;-63
2024/02/10 01:20:30;;;;;;;0.10;0.10;;;;;;;6.94;80.10;97093.00;7372392;19;20005;-63
2024/02/10 01:22:59;;;;;;;0.10;0.10;;;;;;;6.91;80.26;97091.44;7367525;19;20010;-63
2024/02/10 01:25:24;;;;;;;0.10;0.10;;;;;;;6.75;80.29;97083.03;7366567;19;20086;-63
2024/02/10 01:27:50;;;;;;;0.10;0.10;;;;;;;6.79;80.28;97087.03;7365870;19;20006;-63
2024/02/10 01:30:19;;;;;;;0.00;0.00;;;;;;;6.74;80.08;97081.34;7364007;19;20019;-63
2024/02/10 01:32:45;;;;;;;0.10;0.10;;;;;;;6.71;80.16;97092.75;7366839;19;20007;-63
2024/02/10 01:35:11;;;;;;;0.00;0.00;;;;;;;6.67;80.37;97088.69;7367014;19;20640;-63
2024/02/10 01:37:38;;;;;;;0.00;0.00;;;;;;;6.49;80.16;97071.75;7367009;19;20014;-63
2024/02/10 01:40:06;;;;;;;;;;;;;;;6.64;79.09;97099.28;7373072;19;20041;-63
2024/02/10 01:42:38;;;;;;;0.10;0.10;;;;;;;6.41;79.94;97069.63;7364735;19;19915;-63
2024/02/10 01:45:11;;;;;;;0.10;0.10;;;;;;;6.55;79.80;97094.69;7367049;19;20051;-63
2024/02/10 01:47:38;;;;;;;0.10;0.10;;;;;;;6.34;79.91;97063.19;7368224;19;20418;-63
2024/02/10 01:50:08;;;;;;;0.10;0.10;;;;;;;6.32;80.12;97069.38;7368619;19;20014;-63
2024/02/10 01:52:38;;;;;;;0.00;0.00;;;;;;;6.21;80.20;97062.28;7365338;19;20078;-63
2024/02/10 01:55:04;;;;;;;0.10;0.10;;;;;;;6.37;80.28;97091.47;7367391;19;20011;-63
2024/02/10 01:57:31;;;;;;;0.00;0.00;;;;;;;6.32;80.30;97090.94;7365079;19;20023;-63
2024/02/10 01:59:59;;;;;;;0.10;0.10;;;;;;;6.30;80.56;97092.81;7364878;19;20691;-63
2024/02/10 02:02:27;;;;;;;0.10;0.10;;;;;;;6.30;80.15;97098.00;7365389;19;20122;-63
2024/02/10 02:04:53;;;;;;;0.00;0.00;;;;;;;6.15;80.32;97083.41;7362092;19;20018;-63
2024/02/10 02:07:20;;;;;;;0.00;0.00;;;;;;;6.21;80.15;97093.38;7365749;19;20002;-63
2024/02/10 02:09:45;;;;;;;0.10;0.10;;;;;;;6.19;80.33;97095.25;7364787;19;20021;-63
2024/02/10 02:12:10;;;;;;;0.10;0.10;;;;;;;6.09;80.21;97079.44;7367011;19;20010;-63
2024/02/10 02:14:37;;;;;;;0.10;0.10;;;;;;;6.18;80.59;97098.75;7372321;19;20011;-63
2024/02/10 02:17:06;;;;;;;0.10;0.10;;;;;;;6.00;80.25;97074.84;7373240;19;20033;-63
2024/02/10 02:19:33;;;;;;;0.10;0.10;;;;;;;6.11;80.60;97102.66;7372430;19;20019;-63
2024/02/10 02:22:01;;;;;;;0.10;0.10;;;;;;;6.11;80.50;97108.66;7366982;19;20010;-63
2024/02/10 02:24:28;;;;;;;0.00;0.00;;;;;;;6.08;80.32;97108.00;7366716;19;20458;-63
2024/02/10 02:26:55;;;;;;;0.00;0.00;;;;;;;5.96;80.29;97110.44;7367105;19;20035;-63
2024/02/10 02:29:21;;;;;;;0.10;0.10;;;;;;;6.02;80.31;97118.75;7364908;19;20011;-63
2024/02/10 02:31:46;;;;;;;0.00;0.00;;;;;;;5.93;80.10;97110.66;7360973;19;20027;-63
2024/02/10 02:34:11;;;;;;;0.10;0.10;;;;;;;5.75;80.34;97087.59;7364650;19;20007;-63
2024/02/10 02:36:37;;;;;;;0.10;0.10;;;;;;;5.86;80.08;97104.13;7365113;19;20035;-63
2024/02/10 02:39:02;;;;;;;0.10;0.10;;;;;;;5.84;80.36;97110.34;7365048;19;20015;-63
2024/02/10 02:41:28;;;;;;;0.10;0.10;;;;;;;5.73;80.57;97092.88;7362940;19;20003;-63
2024/02/10 02:43:54;;;;;;;0.10;0.10;;;;;;;5.80;80.30;97101.94;7363668;19;20014;-63
2024/02/10 02:46:19;;;;;;;0.08;0.08;;;;;;;5.80;80.45;97107.09;7368198;19;20083;-63
2024/02/10 02:48:45;;;;;;;0.10;0.10;;;;;;;5.54;80.41;97071.63;7365588;19;20482;-63
2024/02/10 02:51:10;;;;;;;0.10;0.10;;;;;;;5.68;80.23;97102.69;7363554;19;20791;-63
2024/02/10 02:53:37;;;;;;;0.03;0.03;;;;;;;5.73;80.26;97111.00;7365055;19;20011;-63
2024/02/10 02:56:03;;;;;;;0.10;0.10;;;;;;;5.71;80.60;97115.41;7371348;19;20354;-63
2024/02/10 02:58:28;;;;;;;0.00;0.00;;;;;;;5.66;80.24;97109.69;7362824;19;20018;-63
2024/02/10 03:00:54;;;;;;;0.00;0.00;;;;;;;5.63;80.29;97110.72;7365379;19;20783;-63
2024/02/10 03:03:19;;;;;;;0.10;0.10;;;;;;;5.60;80.43;97102.31;7365536;19;20022;-63
2024/02/10 03:05:45;;;;;;;0.10;0.10;;;;;;;5.51;80.54;97082.97;7363393;19;20005;-63
2024/02/10 03:08:10;;;;;;;0.08;0.08;;;;;;;5.53;80.83;97093.25;7365020;19;20029;-63
2024/02/10 03:10:36;;;;;;;0.10;0.10;;;;;;;5.44;80.39;97092.88;7372636;19;20007;-62
2024/02/10 03:13:01;;;;;;;0.10;0.10;;;;;;;5.38;80.63;97082.91;7370158;19;20018;-63
2024/02/10 03:15:27;;;;;;;0.10;0.10;;;;;;;5.48;80.70;97093.53;7373432;19;20025;-63
2024/02/10 03:17:55;;;;;;;0.10;0.10;;;;;;;5.53;80.45;97106.19;7371384;19;20014;-63
2024/02/10 03:20:23;;;;;;;0.10;0.10;;;;;;;5.50;80.36;97107.19;7370183;19;20018;-63
2024/02/10 03:23:01;;;;;;;0.10;0.10;;;;;;;5.50;80.69;97108.94;7373697;19;20384;-63
2024/02/10 03:25:27;;;;;;;0.10;0.10;;;;;;;5.47;80.73;97108.22;7370765;19;20029;-63
2024/02/10 03:27:53;;;;;;;0.10;0.10;;;;;;;5.42;80.39;97110.25;7371076;19;20025;-63
2024/02/10 03:30:19;;;;;;;0.10;0.10;;;;;;;5.40;80.38;97114.66;7367280;19;20014;-62
2024/02/10 03:32:44;;;;;;;0.00;0.00;;;;;;;5.36;80.62;97118.34;7368461;19;20608;-62
2024/02/10 03:35:10;;;;;;;0.10;0.10;;;;;;;5.39;80.49;97120.78;7370191;19;20010;-63
2024/02/10 03:37:35;;;;;;;0.10;0.10;;;;;;;5.25;80.51;97101.81;7371720;19;20073;-63
2024/02/10 03:40:10;;;;;;;0.00;0.00;;;;;;;5.32;80.23;97113.44;7371387;19;20025;-62
2024/02/10 03:42:36;;;;;;;0.03;0.03;;;;;;;5.25;80.51;97107.81;7368716;19;20006;-63
2024/02/10 03:45:02;;;;;;;0.10;0.10;;;;;;;5.25;80.37;97097.47;7370478;19;20795;-63
2024/02/10 03:47:27;;;;;;;0.00;0.00;;;;;;;5.14;80.57;97089.50;7369315;19;20505;-63
2024/02/10 03:49:53;;;;;;;0.10;0.10;;;;;;;5.20;80.32;97105.50;7367708;19;20364;-63
2024/02/10 03:52:18;;;;;;;0.05;0.05;;;;;;;5.18;80.41;97101.34;7370216;19;20118;-62
2024/02/10 03:54:44;;;;;;;0.10;0.10;;;;;;;5.16;80.42;97111.75;7369714;19;20010;-63
2024/02/10 03:57:09;;;;;;;0.00;0.00;;;;;;;5.16;80.34;97110.94;7370527;19;20037;-63
2024/02/10 03:59:42;;;;;;;0.10;0.10;;;;;;;5.02;80.10;97091.06;7369839;19;20029;-63
2024/02/10 04:02:08;;;;;;;0.00;0.00;;;;;;;5.07;80.38;97101.13;7370212;19;20034;-63
2024/02/10 04:04:36;;;;;;;0.00;0.00;;;;;;;4.89;80.17;97075.41;7366829;19;20439;-63
2024/02/10 04:07:02;;;;;;;0.10;0.10;;;;;;;5.03;79.94;97103.06;7368521;19;20549;-63
2024/02/10 04:09:28;;;;;;;0.10;0.10;;;;;;;4.83;80.30;97086.13;7367493;19;20027;-62
2024/02/10 04:11:55;;;;;;;0.10;0.10;;;;;;;4.85;79.96;97089.44;7369841;19;20014;-63
2024/02/10 04:14:22;;;;;;;0.10;0.10;;;;;;;4.81;80.06;97093.13;7368652;19;20033;-63
2024/02/10 04:16:52;;;;;;;0.08;0.08;;;;;;;4.80;80.18;97106.97;7365389;19;20022;-63
2024/02/10 04:19:18;;;;;;;0.00;0.00;;;;;;;4.75;80.42;97095.22;7367490;19;20019;-62
2024/02/10 04:21:46;;;;;;;0.10;0.10;;;;;;;4.74;80.29;97102.16;7367990;19;20010;-63
2024/02/10 04:24:16;;;;;;;0.03;0.03;;;;;;;4.86;80.48;97131.63;7371120;19;20050;-63
2024/02/10 04:26:42;;;;;;;0.10;0.10;;;;;;;4.82;80.25;97125.81;7370122;19;20010;-63
2024/02/10 04:29:07;;;;;;;0.00;0.00;;;;;;;4.71;80.31;97106.66;7368970;19;20042;-63
2024/02/10 04:31:33;;;;;;;0.10;0.10;;;;;;;4.75;80.51;97119.31;7364810;19;20014;-63
2024/02/10 04:33:59;;;;;;;0.10;0.10;;;;;;;4.78;80.40;97132.06;7368223;19;20015;-63
2024/02/10 04:36:25;;;;;;;0.10;0.10;;;;;;;4.72;80.22;97124.69;7369020;19;20020;-61
2024/02/10 04:38:50;;;;;;;0.10;0.10;;;;;;;4.72;80.62;97126.44;7368020;19;20718;-63
2024/02/10 04:41:15;;;;;;;0.00;0.00;;;;;;;4.77;80.62;97135.59;7369876;19;20033;-63
2024/02/10 04:43:41;;;;;;;0.00;0.00;;;;;;;4.76;80.42;97131.31;7367450;19;20002;-63
2024/02/10 04:46:08;;;;;;;0.10;0.10;;;;;;;4.77;80.62;97127.84;7366060;19;20086;-63
2024/02/10 04:48:33;;;;;;;0.10;0.10;;;;;;;4.77;80.89;97127.84;7368374;19;20093;-63
2024/02/10 04:50:59;;;;;;;0.10;0.10;;;;;;;4.71;80.98;97117.00;7367727;19;20580;-63
2024/02/10 04:53:27;;;;;;;0.10;0.10;;;;;;;4.79;81.34;97131.16;7367122;19;20007;-61
2024/02/10 04:55:53;;;;;;;0.10;0.10;;;;;;;4.86;80.77;97150.56;7367482;19;20018;-63
2024/02/10 04:58:19;;;;;;;0.10;0.10;;;;;;;4.84;80.92;97139.47;7368541;19;20620;-63
2024/02/10 05:00:44;;;;;;;0.00;0.00;;;;;;;4.85;81.16;97135.97;7368854;19;20029;-62
2024/02/10 05:03:09;;;;;;;0.00;0.00;;;;;;;4.86;80.59;97127.28;7368431;19;20490;-62
2024/02/10 05:05:35;;;;;;;0.10;0.10;;;;;;;4.86;81.04;97132.47;7368586;19;20033;-63
2024/02/10 05:08:00;;;;;;;0.10;0.10;;;;;;;4.82;81.00;97125.00;7374852;19;20029;-63
2024/02/10 05:10:26;;;;;;;0.03;0.03;;;;;;;4.65;80.90;97094.91;7369472;19;20033;-62
2024/02/10 05:12:52;;;;;;;0.10;0.10;;;;;;;4.85;80.64;97133.38;7368201;19;20026;-61
2024/02/10 05:15:20;;;;;;;0.10;0.10;;;;;;;4.97;80.95;97143.94;7370724;19;20019;-63
2024/02/10 05:17:49;;;;;;;0.10;0.10;;;;;;;5.02;80.83;97153.13;7375035;19;20018;-63
2024/02/10 05:20:21;;;;;;;0.00;0.00;;;;;;;4.98;81.01;97150.81;7365916;19;20036;-63
2024/02/10 05:22:51;;;;;;;0.10;0.10;;;;;;;5.03;81.08;97153.97;7366665;19;20063;-63
2024/02/10 05:25:21;;;;;;;0.00;0.00;;;;;;;5.04;80.83;97155.63;7366517;19;20025;-63
2024/02/10 05:27:48;;;;;;;0.10;0.10;;;;;;;5.07;80.56;97165.75;7372640;19;20018;-63
2024/02/10 05:30:19;;;;;;;0.03;0.03;;;;;;;4.95;80.60;97147.44;7363923;19;20022;-62
2024/02/10 05:32:44;;;;;;;0.10;0.10;;;;;;;5.05;80.96;97165.03;7366609;19;20021;-63
2024/02/10 05:35:20;;;;;;;0.03;0.03;;;;;;;4.62;80.82;97098.53;7367933;19;20018;-63
2024/02/10 05:37:46;;;;;;;0.10;0.10;;;;;;;5.03;80.38;97175.47;7366105;19;20544;-63
2024/02/10 05:40:13;;;;;;;0.10;0.10;;;;;;;5.01;80.78;97176.47;7366456;19;20033;-63
2024/02/10 05:42:39;;;;;;;0.10;0.10;;;;;;;4.87;80.46;97160.00;7366699;19;20014;-63
2024/02/10 05:45:06;;;;;;;0.10;0.10;;;;;;;4.87;80.56;97160.00;7373147;19;20035;-63
2024/02/10 05:47:35;;;;;;;0.05;0.05;;;;;;;4.99;80.30;97183.47;7367062;19;20540;-63
2024/02/10 05:50:22;;;;;;;0.10;0.10;;;;;;;4.90;80.75;97172.72;7365781;19;20131;-62
2024/02/10 05:52:49;;;;;;;0.10;0.10;;;;;;;4.92;80.73;97180.44;7365587;19;20014;-62
2024/02/10 05:55:26;;;;;;;0.10;0.10;;;;;;;4.84;80.40;97167.91;7366430;19;20018;-61
2024/02/10 05:58:01;;;;;;;0.10;0.10;;;;;;;4.92;80.61;97181.25;7367386;19;20469;-63
2024/02/10 06:00:27;;;;;;;0.10;0.10;;;;;;;4.71;80.50;97160.91;7366314;19;20007;-63
2024/02/10 06:02:55;;;;;;;0.10;0.10;;;;;;;4.84;80.25;97191.19;7366036;19;20081;-62
2024/02/10 06:05:21;;;;;;;0.10;0.10;;;;;;;4.75;80.21;97183.94;7366656;19;20041;-62
2024/02/10 06:07:48;;;;;;;0.10;0.10;;;;;;;4.82;80.34;97193.03;7366180;19;20011;-63
2024/02/10 06:10:15;;;;;;;0.10;0.10;;;;;;;4.68;80.56;97175.69;7370075;19;20383;-62
2024/02/10 06:12:50;;;;;;;0.10;0.10;;;;;;;4.78;80.43;97191.53;7365297;19;20795;-63
2024/02/10 06:15:17;;;;;;;0.10;0.10;;;;;;;4.69;80.59;97186.84;7365627;19;20098;-63
2024/02/10 06:17:52;;;;;;;0.10;0.10;;;;;;;4.77;80.50;97205.38;7365634;19;20010;-63
2024/02/10 06:20:22;;;;;;;0.00;0.00;;;;;;;4.76;80.68;97203.69;7365964;19;20010;-63
2024/02/10 06:22:50;;;;;;;0.10;0.10;;;;;;;4.76;80.49;97208.03;7365641;19;20749;-63
2024/02/10 06:25:15;;;;;;;;;;;;;;;4.76;79.86;97203.69;7366950;19;20014;-63
2024/02/10 06:27:45;;;;;;;0.10;0.10;;;;;;;4.71;80.33;97200.53;7365952;19;20301;-63
2024/02/10 06:30:13;;;;;;;0.10;0.10;;;;;;;4.73;80.39;97211.63;7363470;19;20018;-62
2024/02/10 06:32:39;;;;;;;0.00;0.00;;;;;;;4.72;80.41;97216.88;7365783;19;20097;-62
2024/02/10 06:35:06;;;;;;;0.08;0.08;;;;;;;4.64;80.26;97209.53;7366264;19;20559;-63
2024/02/10 06:37:32;;;;;;;0.00;0.00;;;;;;;4.69;80.52;97217.88;7364825;19;20006;-62
2024/02/10 06:39:58;;;;;;;0.10;0.10;;;;;;;4.65;80.43;97211.19;7365432;19;20019;-62
2024/02/10 06:42:25;;;;;;;0.10;0.10;;;;;;;4.70;80.78;97219.53;7369992;19;20039;-62
2024/02/10 06:44:51;;;;;;;0.10;0.10;;;;;;;4.69;80.83;97223.03;7374101;19;20097;-63
2024/02/10 06:47:17;;;;;;;0.10;0.10;;;;;;;4.56;80.49;97196.19;7372180;19;20074;-62
2024/02/10 06:49:42;;;;;;;0.10;0.10;;;;;;;4.70;80.87;97229.88;7375762;19;20022;-62
2024/02/10 06:52:08;;;;;;;0.10;0.10;;;;;;;4.73;80.98;97234.88;7372325;19;20948;-63
2024/02/10 06:54:33;;;;;;;0.00;0.00;;;;;;;4.61;80.57;97217.44;7372627;19;20045;-63
2024/02/10 06:57:01;;;;;;;0.10;0.10;;;;;;;4.58;80.45;97215.88;7376094;19;20506;-63
2024/02/10 06:59:27;;;;;;;0.10;0.10;;;;;;;4.68;80.95;97239.47;7376988;19;20109;-63
2024/02/10 07:01:56;;;;;;;0.00;0.00;;;;;;;4.71;80.79;97241.88;7378518;19;20545;-62
2024/02/10 07:04:22;;;;;;;0.00;0.00;;;;;;;4.60;80.55;97224.38;7372514;19;20010;-62
2024/02/10 07:06:53;;;;;;;0.10;0.10;;;;;;;4.66;80.51;97236.13;7369357;19;20025;-63
2024/02/10 07:09:19;;;;;;;0.10;0.10;;;;;;;4.76;80.46;97247.63;7374191;19;20123;-63
2024/02/10 07:11:45;;;;;;;0.10;0.10;;;;;;;4.77;80.31;97256.22;7371526;19;20015;-62
2024/02/10 07:14:11;;;;;;;0.00;0.00;;;;;;;4.76;80.82;97249.38;7372483;19;20015;-62
2024/02/10 07:16:36;;;;;;;0.10;0.10;;;;;;;4.72;80.71;97248.72;7376548;19;20014;-62
2024/02/10 07:19:02;;;;;;;0.00;0.00;;;;;;;4.77;80.84;97261.41;7379780;19;20793;-63
2024/02/10 07:21:27;;;;;;;0.03;0.03;;;;;;;4.66;80.81;97249.03;7369421;19;20039;-62
2024/02/10 07:23:53;;;;;;;0.10;0.10;;;;;;;4.68;80.88;97254.97;7371691;19;20121;-63
2024/02/10 07:26:20;;;;;;;0.10;0.10;;;;;;;4.70;80.38;97258.31;7378376;19;20789;-62
2024/02/10 07:28:53;;;;;;;0.03;0.03;;;;;;;4.91;80.91;97292.47;7374291;19;20031;-62
2024/02/10 07:31:19;;;;;;;0.10;0.10;;;;;;;4.84;80.94;97273.91;7368069;19;20027;-63
2024/02/10 07:33:47;;;;;;;0.10;0.10;;;;;;;4.97;81.08;97293.91;7370420;19;20009;-63
2024/02/10 07:36:15;;;;;;;0.10;0.10;;;;;;;4.90;81.03;97273.56;7368997;19;20018;-63
2024/02/10 07:38:41;;;;;;;0.00;0.00;;;;;;;5.02;81.07;97292.75;7370288;19;20030;-63
2024/02/10 07:41:06;;;;;;;0.10;0.10;;;;;;;5.02;80.49;97294.47;7368862;19;20011;-63
2024/02/10 07:43:32;;;;;;;0.10;0.10;;;;;;;5.07;80.63;97310.56;7370214;19;20006;-63
2024/02/10 07:45:58;;;;;;;0.10;0.10;;;;;;;5.00;80.61;97309.25;7371823;19;20011;-63
2024/02/10 07:48:23;;;;;;;0.03;0.03;;;;;;;5.05;80.71;97312.44;7371280;19;20010;-62
2024/02/10 07:50:49;;;;;;;0.10;0.10;;;;;;;4.94;80.80;97295.75;7368594;19;20013;-62
2024/02/10 07:53:15;;;;;;;0.10;0.10;;;;;;;4.91;80.42;97301.06;7365687;19;20502;-62
2024/02/10 07:55:42;;;;;;;0.10;0.10;;;;;;;5.03;80.39;97327.19;7368885;19;20007;-63
2024/02/10 07:58:09;;;;;;;0.10;0.10;;;;;;;4.91;80.29;97300.25;7369238;19;20881;-63
2024/02/10 08:00:35;;;;;;;0.10;0.10;;;;;;;4.99;80.43;97315.34;7369618;19;20037;-62
2024/02/10 08:03:03;;;;;;;0.10;0.10;;;;;;;4.87;80.64;97303.94;7370657;19;21519;-63
2024/02/10 08:05:30;;;;;;;0.10;0.10;;;;;;;4.86;80.44;97302.25;7370802;19;20011;-62
2024/02/10 08:07:57;;;;;;;0.00;0.00;;;;;;;4.95;80.29;97323.25;7368892;19;20081;-62
2024/02/10 08:10:22;;;;;;;0.00;0.00;;;;;;;4.85;80.37;97311.75;7367286;19;20116;-62
2024/02/10 08:12:50;;;;;;;0.10;0.10;;;;;;;4.88;80.37;97315.94;7366478;19;20834;-62
2024/02/10 08:15:15;;;;;;;0.03;0.03;;;;;;;4.87;80.61;97320.28;7367881;19;20026;-62
2024/02/10 08:17:43;;;;;;;0.10;0.10;;;;;;;5.01;80.72;97337.59;7369004;19;20043;-62
2024/02/10 08:20:11;;;;;;;;;;;;;;;5.12;80.80;97342.19;7370992;19;20022;-63
2024/02/10 08:22:37;;;;;;;0.00;0.00;;;;;;;5.09;80.44;97339.78;7368372;19;19918;-62
2024/02/10 08:25:07;;;;;;;0.10;0.10;;;;;;;5.15;80.56;97353.22;7373758;19;20018;-62
2024/02/10 08:27:33;;;;;;;0.10;0.10;;;;;;;5.17;80.66;97353.13;7370839;19;20014;-62
2024/02/10 08:30:00;;;;;;;0.10;0.10;;;;;;;5.10;80.43;97341.47;7366501;19;20064;-62
2024/02/10 08:32:26;;;;;;;0.10;0.10;;;;;;;5.21;80.61;97359.81;7366544;19;20018;-62
2024/02/10 08:34:52;;;;;;;0.10;0.10;;;;;;;5.24;80.18;97361.41;7368687;19;20015;-62
2024/02/10 08:37:18;;;;;;;0.10;0.10;;;;;;;5.23;80.50;97359.75;7366714;19;20473;-62
2024/02/10 08:39:45;;;;;;;0.00;0.00;;;;;;;5.27;80.64;97359.50;7368651;19;20082;-62
2024/02/10 08:42:14;;;;;;;0.08;0.08;;;;;;;5.26;80.48;97368.16;7369092;19;20017;-62
2024/02/10 08:44:40;;;;;;;0.00;0.00;;;;;;;5.25;80.46;97366.47;7368149;19;20018;-62
2024/02/10 08:47:06;;;;;;;0.00;0.00;;;;;;;5.35;80.66;97388.34;7368144;19;20011;-63
2024/02/10 08:49:36;;;;;;;0.10;0.10;;;;;;;5.43;80.78;97378.44;7367885;19;20466;-60
2024/02/10 08:52:03;;;;;;;0.00;0.00;;;;;;;5.52;80.91;97386.56;7366214;19;20019;-62
2024/02/10 08:54:30;;;;;;;0.10;0.10;;;;;;;5.26;80.81;97326.75;7372355;19;20461;-62
2024/02/10 08:57:00;;;;;;;0.10;0.10;;;;;;;5.75;80.70;97386.16;7377174;19;20023;-62
2024/02/10 08:59:31;;;;;;;0.10;0.10;;;;;;;5.86;80.36;97383.78;7370265;19;20015;-61
2024/02/10 09:02:04;;;;;;;0.03;0.03;;;;;;;5.96;80.20;97390.13;7368629;19;20011;-62
2024/02/10 09:04:30;;;;;;;0.00;0.00;;;;;;;6.04;79.97;97399.25;7373527;19;20010;-62
2024/02/10 09:06:56;;;;;;;0.00;0.00;;;;;;;6.14;79.98;97408.16;7367819;19;20032;-62
2024/02/10 09:09:23;;;;;;;0.10;0.10;;;;;;;6.15;79.52;97399.44;7366539;19;20097;-63
2024/02/10 09:11:48;;;;;;;0.10;0.10;;;;;;;6.19;79.32;97404.38;7366275;19;20021;-62
2024/02/10 09:14:14;;;;;;;0.10;0.10;;;;;;;6.27;79.73;97414.28;7366603;19;20386;-62
2024/02/10 09:16:40;;;;;;;0.05;0.05;;;;;;;6.27;79.41;97409.09;7367975;19;20018;-62
2024/02/10 09:19:05;;;;;;;0.10;0.10;;;;;;;6.32;79.42;97412.25;7370550;19;20003;-62
2024/02/10 09:21:31;;;;;;;0.10;0.10;;;;;;;6.27;79.42;97400.50;7370809;19;20011;-62
2024/02/10 09:23:59;;;;;;;0.10;0.10;;;;;;;6.38;79.76;97417.06;7367365;19;20014;-62
2024/02/10 09:26:25;;;;;;;0.10;0.10;;;;;;;6.42;79.18;97422.91;7367057;19;20043;-61
2024/02/10 09:28:51;;;;;;;0.10;0.10;;;;;;;6.35;79.20;97411.25;7366796;19;20011;-62
2024/02/10 09:31:16;;;;;;;0.05;0.05;;;;;;;6.53;79.54;97430.06;7366975;19;20010;-62
2024/02/10 09:33:43;;;;;;;0.10;0.10;;;;;;;6.59;79.68;97416.72;7365318;19;20028;-63
2024/02/10 09:36:12;;;;;;;0.10;0.10;;;;;;;6.74;79.63;97426.19;7365262;19;20085;-62
2024/02/10 09:38:40;;;;;;;0.20;0.20;;;;;;;6.95;79.21;97422.34;7365747;19;20462;-62
2024/02/10 09:41:07;;;;;;;0.10;0.10;;;;;;;7.20;79.34;97428.63;7367516;19;20494;-62
2024/02/10 09:43:35;;;;;;;;;;;;;;;7.53;80.24;97429.13;7365761;19;20018;-62
2024/02/10 09:46:06;;;;;;;0.10;0.10;;;;;;;7.76;78.70;97429.44;7365971;19;19919;-62
2024/02/10 09:48:38;;;;;;;0.05;0.05;;;;;;;8.00;78.10;97435.63;7366265;19;20011;-62
2024/02/10 09:51:04;;;;;;;0.10;0.10;;;;;;;8.16;77.90;97443.31;7367344;19;20481;-62
2024/02/10 09:53:30;;;;;;;0.10;0.10;;;;;;;8.39;77.02;97439.22;7366194;19;20014;-62
2024/02/10 09:55:58;;;;;;;0.00;0.00;;;;;;;8.57;76.75;97448.41;7365403;19;19999;-62
2024/02/10 09:58:28;;;;;;;0.10;0.10;;;;;;;8.70;77.11;97440.59;7365417;19;20501;-63
2024/02/10 10:00:54;;;;;;;0.10;0.10;;;;;;;8.71;76.22;97433.63;7365049;19;20010;-62
2024/02/10 10:03:20;;;;;;;0.10;0.10;;;;;;;8.95;76.30;97457.16;7367282;19;20802;-62
2024/02/10 10:05:47;;;;;;;0.10;0.10;;;;;;;8.84;76.34;97422.31;7365094;19;20787;-62
2024/02/10 10:08:21;;;;;;;0.10;0.10;;;;;;;9.09;75.90;97447.47;7366991;19;20021;-63
2024/02/10 10:10:49;;;;;;;0.10;0.10;;;;;;;9.20;75.92;97451.13;7366557;19;20010;-62
2024/02/10 10:13:14;;;;;;;0.10;0.10;;;;;;;9.31;75.73;97446.81;7364689;19;20402;-63
2024/02/10 10:15:40;;;;;;;0.10;0.10;;;;;;;9.46;75.90;97446.69;7368469;19;20389;-63
2024/02/10 10:18:13;;;;;;;0.10;0.10;;;;;;;9.65;76.05;97447.06;7367781;19;20006;-62
2024/02/10 10:20:39;;;;;;;0.10;0.10;;;;;;;9.74;75.28;97445.59;7365519;19;20010;-63
2024/02/10 10:23:04;;;;;;;0.10;0.10;;;;;;;9.88;75.04;97459.31;7365911;19;20454;-63
2024/02/10 10:25:30;;;;;;;0.10;0.10;;;;;;;10.02;75.27;97455.69;7364942;19;20018;-62
2024/02/10 10:27:56;;;;;;;0.10;0.10;;;;;;;10.20;75.13;97452.69;7366643;19;20569;-63
2024/02/10 10:30:25;;;;;;;0.00;0.00;;;;;;;10.44;75.78;97453.53;7362438;19;20036;-62
2024/02/10 10:32:53;;;;;;;0.10;0.10;;;;;;;10.55;74.99;97450.97;7368664;19;20007;-63
2024/02/10 10:35:19;;;;;;;0.10;0.10;;;;;;;10.87;74.55;97460.75;7366937;19;20013;-63
2024/02/10 10:37:48;;;;;;;0.10;0.10;;;;;;;10.97;74.69;97453.88;7365526;19;20042;-63
2024/02/10 10:40:13;;;;;;;0.00;0.00;;;;;;;11.16;74.75;97435.88;7365099;19;20029;-63
2024/02/10 10:42:41;;;;;;;0.10;0.10;;;;;;;11.50;74.63;97461.97;7364117;19;20010;-63
2024/02/10 10:45:08;;;;;;;0.10;0.10;;;;;;;11.76;74.05;97456.47;7368115;19;20006;-63
2024/02/10 10:47:41;;;;;;;0.10;0.10;;;;;;;12.00;74.39;97459.78;7371949;19;20020;-63
2024/02/10 10:50:09;;;;;;;0.10;0.10;;;;;;;12.28;73.70;97468.03;7365077;19;20039;-63
2024/02/10 10:52:40;;;;;;;0.10;0.10;;;;;;;12.50;73.10;97470.53;7364590;19;20479;-63
2024/02/10 10:55:09;;;;;;;0.10;0.10;;;;;;;12.63;71.97;97471.19;7364209;19;20014;-62
2024/02/10 10:57:36;;;;;;;0.10;0.10;;;;;;;12.73;71.86;97474.72;7363951;19;20461;-63
2024/02/10 11:00:12;;;;;;;0.10;0.10;;;;;;;12.90;72.37;97475.09;7364949;19;20042;-63
2024/02/10 11:02:40;;;;;;;0.10;0.10;;;;;;;12.95;72.51;97467.69;7364144;19;20435;-63
2024/02/10 11:05:09;;;;;;;;;;;;;;;13.17;73.94;97471.94;7365025;19;20014;-63
2024/02/10 11:07:38;;;;;;;0.10;0.10;;;;;;;13.21;72.72;97479.44;7364265;19;20379;-63
2024/02/10 11:10:05;;;;;;;0.10;0.10;;;;;;;13.39;72.34;97466.56;7364041;19;20014;-63
2024/02/10 11:12:36;;;;;;;0.10;0.10;;;;;;;13.56;72.27;97472.97;7362411;19;20019;-63
2024/02/10 11:15:09;;;;;;;0.10;0.10;;;;;;;13.74;70.96;97466.13;7369170;19;20014;-62
2024/02/10 11:17:34;;;;;;;0.10;0.10;;;;;;;13.94;71.09;97466.19;7363411;19;20014;-63
2024/02/10 11:20:05;;;;;;;0.10;0.10;;;;;;;14.20;71.08;97474.38;7360127;19;20763;-63
2024/02/10 11:22:37;;;;;;;0.10;0.10;;;;;;;14.47;71.05;97473.69;7363390;19;20483;-63
2024/02/10 11:25:10;;;;;;;0.10;0.10;;;;;;;14.60;69.60;97482.16;7362374;19;20023;-63
2024/02/10 11:27:36;;;;;;;0.10;0.10;;;;;;;14.65;69.41;97458.94;7363230;19;20015;-63
2024/02/10 11:30:02;;;;;;;0.10;0.10;;;;;;;14.88;69.36;97483.09;7366758;19;20336;-63
2024/02/10 11:32:28;;;;;;;0.10;0.10;;;;;;;14.97;68.97;97481.44;7369637;19;20577;-63
2024/02/10 11:34:53;;;;;;;0.20;0.20;;;;;;;15.07;68.73;97481.41;7370246;19;20041;-63
2024/02/10 11:37:20;;;;;;;0.10;0.10;;;;;;;15.09;69.34;97490.78;7371565;19;20493;-63
2024/02/10 11:39:45;;;;;;;0.20;0.20;;;;;;;15.02;68.94;97468.69;7370439;19;20499;-63
2024/02/10 11:42:16;;;;;;;0.10;0.10;;;;;;;15.00;69.73;97466.22;7371468;19;20085;-63